Archival Weather

Norman Y Mineta San Jose Intl

San Jose, California (KSJC)

Report from: Wednesday, February 7, 2024 5:53 PM PST
Current time: Monday, June 24, 2024 2:54 AM PDT

Current weather – Weather history – Daily summaries
Weather forecast

Temperature10.0°C (50.0°F)
Wind chill7.4°C (45.2°F)
Dew point2.2°C (36.0°F)
Winds 11 kts (5.7 m/s, 12.7 mph) West (280°)
Peak wind 27 kts (13.9 m/s, 31.1 mph) West (260°) at 01:27
Visibility10 mi. (16.1 km)
Clouds Few clouds 3,700 ft. (1,128 m)
Scattered clouds 5,500 ft. (1,676 m)
Ceiling: Broken clouds 9,000 ft. (2,743 m)
Altimeter29.77 in.Hg (1008 mB)
PrecipitiationTrace
Precip. events Rain ended 1:39 AM
Relative humidity58 %
Density altitude-319 ft. (-97 m)
Sea-level pressure100.8 kPa (1008 mB, 29.77 in.Hg)
Remarks Automated weather observing station with precipitation discriminator
Flight conditions Visual Meteorological Conditions
Raw dataKSJC 080153Z 28011KT 10SM FEW037 SCT055 BKN090 10/02 A2977 RMK AO2 PK WND 26027/0127 RAE39 SLP082 P0000 T01000022
An error has occurred. This application may no longer respond until reloaded. Reload 🗙